Time,TemperatureF,DewpointF,PressureIn,WindDirection,WindDirectionDegrees,WindSpeedMPH,WindSpeedGustMPH,Humidity,HourlyPrecipIn,Conditions,Clouds,dailyrainin,SoftwareType,DateUTC
2013-04-18 00:03:00,46.0,40.0,29.82,SW,217,0.0,1.0,79,0.00,,,-99.99,,2013-04-18 04:03:00,
2013-04-18 00:13:00,46.0,40.0,29.82,SW,217,0.0,1.0,79,0.00,,,-99.99,,2013-04-18 04:13:00,
2013-04-18 00:23:00,46.0,40.0,29.83,SSW,206,0.0,0.0,80,0.00,,,-99.99,,2013-04-18 04:23:00,
2013-04-18 00:33:00,46.0,41.0,29.83,SSW,200,0.0,2.0,81,0.00,,,-99.99,,2013-04-18 04:33:00,
2013-04-18 00:43:00,46.0,41.0,29.83,South,186,0.0,1.0,83,0.00,,,-99.99,,2013-04-18 04:43:00,
2013-04-18 00:53:00,46.0,41.0,29.83,South,186,0.0,1.0,83,0.00,,,-99.99,,2013-04-18 04:53:00,
2013-04-18 01:02:00,43.0,39.0,29.83,SW,227,0.0,1.0,85,0.00,,,-99.99,,2013-04-18 05:02:00,
2013-04-18 01:12:00,45.0,41.0,29.83,SSW,203,0.0,1.0,86,0.00,,,-99.99,,2013-04-18 05:12:00,
2013-04-18 01:22:00,45.0,41.0,29.83,SSW,203,0.0,1.0,86,0.00,,,-99.99,,2013-04-18 05:22:00,
2013-04-18 01:33:00,45.0,41.0,29.83,WSW,241,0.0,1.0,87,0.00,,,-99.99,,2013-04-18 05:33:00,
2013-04-18 01:42:00,45.0,42.0,29.83,South,169,0.0,1.0,88,0.00,,,-99.99,,2013-04-18 05:42:00,
2013-04-18 01:52:00,45.0,42.0,29.83,South,169,0.0,1.0,88,0.00,,,-99.99,,2013-04-18 05:52:00,
2013-04-18 02:02:00,45.0,42.0,29.83,WSW,247,0.0,1.0,89,0.00,,,-99.99,,2013-04-18 06:02:00,
2013-04-18 02:12:00,44.0,41.0,29.83,SSW,210,0.0,0.0,88,0.00,,,-99.99,,2013-04-18 06:12:00,
2013-04-18 02:22:00,44.0,41.0,29.83,SSW,210,0.0,0.0,88,0.00,,,-99.99,,2013-04-18 06:22:00,
2013-04-18 02:32:00,44.0,41.0,29.83,SSW,194,0.0,1.0,89,0.00,,,-99.99,,2013-04-18 06:32:00,
2013-04-18 02:42:00,44.0,41.0,29.83,SSW,211,0.0,0.0,90,0.00,,,-99.99,,2013-04-18 06:42:00,
2013-04-18 02:52:00,44.0,41.0,29.83,SSW,211,0.0,0.0,90,0.00,,,-99.99,,2013-04-18 06:52:00,
2013-04-18 03:02:00,44.0,41.0,29.83,South,186,0.0,1.0,90,0.00,,,-99.99,,2013-04-18 07:02:00,
2013-04-18 03:12:00,44.0,41.0,29.83,WSW,239,0.0,1.0,90,0.00,,,-99.99,,2013-04-18 07:12:00,
2013-04-18 03:22:00,44.0,41.0,29.83,WSW,239,0.0,1.0,90,0.00,,,-99.99,,2013-04-18 07:22:00,
2013-04-18 03:32:00,43.0,40.0,29.83,South,187,0.0,0.0,90,0.00,,,-99.99,,2013-04-18 07:32:00,
2013-04-18 03:42:00,43.0,40.0,29.83,SSW,203,0.0,0.0,90,0.00,,,-99.99,,2013-04-18 07:42:00,
2013-04-18 03:53:00,43.0,40.0,29.83,SSW,203,0.0,0.0,90,0.00,,,-99.99,,2013-04-18 07:53:00,
2013-04-18 04:02:00,43.0,41.0,29.83,SW,214,0.0,0.0,91,0.00,,,-99.99,,2013-04-18 08:02:00,
2013-04-18 04:12:00,43.0,41.0,29.83,South,172,0.0,1.0,92,0.00,,,-99.99,,2013-04-18 08:12:00,
2013-04-18 04:22:00,43.0,41.0,29.83,South,172,0.0,1.0,92,0.00,,,-99.99,,2013-04-18 08:22:00,
2013-04-18 04:32:00,44.0,42.0,29.83,SW,235,0.0,0.0,92,0.00,,,-99.99,,2013-04-18 08:32:00,
2013-04-18 04:42:00,45.0,42.0,29.83,SSW,202,0.0,2.0,90,0.00,,,-99.99,,2013-04-18 08:42:00,
2013-04-18 04:52:00,45.0,42.0,29.83,SSW,202,0.0,2.0,90,0.00,,,-99.99,,2013-04-18 08:52:00,
2013-04-18 05:02:00,45.0,42.0,29.83,SW,225,0.0,1.0,90,0.00,,,-99.99,,2013-04-18 09:02:00,
2013-04-18 05:12:00,44.0,42.0,29.83,SSW,212,0.0,0.0,92,0.00,,,-99.99,,2013-04-18 09:12:00,
2013-04-18 05:22:00,44.0,42.0,29.83,SSW,212,0.0,0.0,92,0.00,,,-99.99,,2013-04-18 09:22:00,
2013-04-18 05:33:00,44.0,42.0,29.83,SSW,206,0.0,1.0,92,0.00,,,-99.99,,2013-04-18 09:33:00,
2013-04-18 05:43:00,44.0,42.0,29.83,SSW,206,0.0,1.0,92,0.00,,,-99.99,,2013-04-18 09:43:00,
2013-04-18 05:53:00,44.0,42.0,29.83,SSW,206,0.0,1.0,92,0.00,,,-99.99,,2013-04-18 09:53:00,
2013-04-18 06:03:00,44.0,42.0,29.83,SW,225,0.0,1.0,94,0.00,,,-99.99,,2013-04-18 10:03:00,
2013-04-18 06:12:00,44.0,43.0,29.83,SW,220,0.0,1.0,95,0.00,,,-99.99,,2013-04-18 10:12:00,
2013-04-18 06:23:00,44.0,43.0,29.83,SW,220,0.0,1.0,95,0.00,,,-99.99,,2013-04-18 10:23:00,
2013-04-18 06:33:00,44.0,43.0,29.83,SW,217,0.0,0.0,95,0.00,,,-99.99,,2013-04-18 10:33:00,
2013-04-18 06:42:00,44.0,42.0,29.83,SSE,154,1.0,2.0,94,0.00,,,-99.99,,2013-04-18 10:42:00,
2013-04-18 06:52:00,44.0,42.0,29.83,SSE,154,1.0,2.0,94,0.00,,,-99.99,,2013-04-18 10:52:00,
2013-04-18 07:02:00,46.0,43.0,29.83,SSE,149,1.0,3.0,90,0.00,,,-99.99,,2013-04-18 11:02:00,
2013-04-18 07:12:00,46.0,43.0,29.85,ESE,122,2.0,4.0,88,0.00,,,-99.99,,2013-04-18 11:12:00,
2013-04-18 07:22:00,46.0,43.0,29.85,ESE,122,2.0,4.0,88,0.00,,,-99.99,,2013-04-18 11:22:00,
2013-04-18 07:32:00,49.0,43.0,29.85,ESE,117,1.0,5.0,81,0.00,,,-99.99,,2013-04-18 11:32:00,
2013-04-18 07:42:00,55.0,43.0,29.85,ESE,112,2.0,5.0,65,0.00,,,-99.99,,2013-04-18 11:42:00,
2013-04-18 07:52:00,55.0,43.0,29.85,ESE,112,2.0,5.0,65,0.00,,,-99.99,,2013-04-18 11:52:00,
2013-04-18 08:02:00,57.0,44.0,29.85,SE,134,2.0,5.0,62,0.00,,,-99.99,,2013-04-18 12:02:00,
2013-04-18 08:12:00,59.0,44.0,29.85,ESE,109,2.0,5.0,58,0.00,,,-99.99,,2013-04-18 12:12:00,
2013-04-18 08:22:00,59.0,44.0,29.85,ESE,109,2.0,5.0,58,0.00,,,-99.99,,2013-04-18 12:22:00,
2013-04-18 08:32:00,63.0,43.0,29.83,SE,146,2.0,6.0,48,0.00,,,-99.99,,2013-04-18 12:32:00,
2013-04-18 08:42:00,64.0,42.0,29.85,SSE,158,3.0,5.0,44,0.00,,,-99.99,,2013-04-18 12:42:00,
2013-04-18 08:52:00,64.0,42.0,29.85,SSE,158,3.0,5.0,44,0.00,,,-99.99,,2013-04-18 12:52:00,
2013-04-18 09:03:00,67.0,40.0,29.85,SSE,158,2.0,7.0,37,0.00,,,-99.99,,2013-04-18 13:03:00,
2013-04-18 09:12:00,64.0,40.0,29.85,SSE,161,2.0,8.0,41,0.00,,,-99.99,,2013-04-18 13:12:00,
2013-04-18 09:22:00,64.0,40.0,29.85,SSE,161,2.0,8.0,41,0.00,,,-99.99,,2013-04-18 13:22:00,
2013-04-18 09:32:00,62.0,39.0,29.85,SSE,161,3.0,7.0,43,0.00,,,-99.99,,2013-04-18 13:32:00,
2013-04-18 09:42:00,68.0,41.0,29.85,SSE,155,3.0,8.0,37,0.00,,,-99.99,,2013-04-18 13:42:00,
2013-04-18 09:53:00,68.0,41.0,29.85,SSE,155,3.0,8.0,37,0.00,,,-99.99,,2013-04-18 13:53:00,
2013-04-18 10:02:00,68.0,41.0,29.85,ESE,118,4.0,8.0,37,0.00,,,-99.99,,2013-04-18 14:02:00,
2013-04-18 10:12:00,61.0,40.0,29.85,SSW,207,3.0,7.0,45,0.00,,,-99.99,,2013-04-18 14:12:00,
2013-04-18 10:22:00,61.0,40.0,29.85,SSW,207,3.0,7.0,45,0.00,,,-99.99,,2013-04-18 14:22:00,
2013-04-18 10:32:00,60.0,39.0,29.85,SSE,156,3.0,8.0,45,0.00,,,-99.99,,2013-04-18 14:32:00,
2013-04-18 10:43:00,61.0,40.0,29.85,SSE,158,2.0,6.0,45,0.00,,,-99.99,,2013-04-18 14:43:00,
2013-04-18 10:52:00,61.0,40.0,29.85,SSE,158,2.0,6.0,45,0.00,,,-99.99,,2013-04-18 14:52:00,
2013-04-18 11:03:00,62.0,39.0,29.85,SSE,159,3.0,7.0,43,0.00,,,-99.99,,2013-04-18 15:03:00,
2013-04-18 11:12:00,62.0,39.0,29.85,SSE,159,3.0,7.0,43,0.00,,,-99.99,,2013-04-18 15:12:00,
2013-04-18 11:22:00,64.0,40.0,29.85,SSE,155,3.0,10.0,42,0.00,,,-99.99,,2013-04-18 15:22:00,
2013-04-18 11:33:00,63.0,41.0,29.85,ESE,121,4.0,10.0,44,0.00,,,-99.99,,2013-04-18 15:33:00,
2013-04-18 11:43:00,65.0,40.0,29.85,ESE,108,4.0,9.0,40,0.00,,,-99.99,,2013-04-18 15:43:00,
2013-04-18 11:52:00,65.0,40.0,29.85,ESE,108,4.0,9.0,40,0.00,,,-99.99,,2013-04-18 15:52:00,
2013-04-18 12:03:00,64.0,39.0,29.85,SSW,198,3.0,9.0,40,0.00,,,-99.99,,2013-04-18 16:03:00,
2013-04-18 12:13:00,63.0,40.0,29.85,SSE,167,3.0,8.0,43,0.00,,,-99.99,,2013-04-18 16:13:00,
2013-04-18 12:23:00,63.0,40.0,29.85,SSE,167,3.0,8.0,43,0.00,,,-99.99,,2013-04-18 16:23:00,
2013-04-18 12:33:00,60.0,40.0,29.85,ESE,118,4.0,10.0,47,0.00,,,-99.99,,2013-04-18 16:33:00,
2013-04-18 12:43:00,60.0,40.0,29.85,ESE,118,4.0,10.0,47,0.00,,,-99.99,,2013-04-18 16:43:00,
2013-04-18 12:53:00,60.0,40.0,29.85,ESE,118,4.0,10.0,47,0.00,,,-99.99,,2013-04-18 16:53:00,
2013-04-18 13:03:00,59.0,40.0,29.83,SSE,158,3.0,8.0,50,0.00,,,-99.99,,2013-04-18 17:03:00,
2013-04-18 13:12:00,59.0,41.0,29.83,South,190,4.0,10.0,51,0.00,,,-99.99,,2013-04-18 17:12:00,
2013-04-18 13:22:00,59.0,41.0,29.83,South,190,4.0,10.0,51,0.00,,,-99.99,,2013-04-18 17:22:00,
2013-04-18 13:33:00,61.0,42.0,29.83,SSW,197,3.0,13.0,50,0.00,,,-99.99,,2013-04-18 17:33:00,
2013-04-18 13:42:00,61.0,43.0,29.83,SSW,203,3.0,7.0,51,0.00,,,-99.99,,2013-04-18 17:42:00,
2013-04-18 13:52:00,61.0,43.0,29.83,SSW,203,3.0,7.0,51,0.00,,,-99.99,,2013-04-18 17:52:00,
2013-04-18 14:02:00,58.0,42.0,29.83,SSE,163,4.0,8.0,55,0.00,,,-99.99,,2013-04-18 18:02:00,
2013-04-18 14:12:00,56.0,41.0,29.83,SSW,201,3.0,9.0,57,0.00,,,-99.99,,2013-04-18 18:12:00,
2013-04-18 14:23:00,56.0,41.0,29.83,SSW,201,3.0,9.0,57,0.00,,,-99.99,,2013-04-18 18:23:00,
2013-04-18 14:32:00,55.0,41.0,29.83,SSW,195,3.0,6.0,59,0.00,,,-99.99,,2013-04-18 18:32:00,
2013-04-18 14:42:00,57.0,42.0,29.83,SSE,166,3.0,7.0,57,0.00,,,-99.99,,2013-04-18 18:42:00,
2013-04-18 14:52:00,57.0,42.0,29.83,SSE,166,3.0,7.0,57,0.00,,,-99.99,,2013-04-18 18:52:00,
2013-04-18 15:02:00,61.0,44.0,29.80,SSE,156,3.0,9.0,53,0.00,,,-99.99,,2013-04-18 19:02:00,
2013-04-18 15:12:00,61.0,44.0,29.80,SSE,156,3.0,9.0,53,0.00,,,-99.99,,2013-04-18 19:12:00,
2013-04-18 15:22:00,63.0,44.0,29.80,SSW,196,3.0,8.0,50,0.00,,,-99.99,,2013-04-18 19:22:00,
2013-04-18 15:32:00,59.0,44.0,29.80,SSE,167,3.0,7.0,57,0.00,,,-99.99,,2013-04-18 19:32:00,
2013-04-18 15:42:00,55.0,42.0,29.80,SSE,161,2.0,7.0,62,0.00,,,-99.99,,2013-04-18 19:42:00,
2013-04-18 15:53:00,55.0,42.0,29.80,SSE,161,2.0,7.0,62,0.00,,,-99.99,,2013-04-18 19:53:00,
2013-04-18 16:02:00,55.0,43.0,29.80,ESE,112,3.0,8.0,65,0.00,,,-99.99,,2013-04-18 20:02:00,
2013-04-18 16:12:00,55.0,44.0,29.80,SSE,162,3.0,6.0,66,0.00,,,-99.99,,2013-04-18 20:12:00,
2013-04-18 16:22:00,55.0,44.0,29.80,SSE,162,3.0,6.0,66,0.00,,,-99.99,,2013-04-18 20:22:00,
2013-04-18 16:32:00,55.0,44.0,29.80,SSE,165,3.0,6.0,66,0.00,,,-99.99,,2013-04-18 20:32:00,
2013-04-18 16:42:00,54.0,44.0,29.80,SSE,155,3.0,9.0,68,0.00,,,-99.99,,2013-04-18 20:42:00,
2013-04-18 16:52:00,54.0,44.0,29.80,SSE,155,3.0,9.0,68,0.00,,,-99.99,,2013-04-18 20:52:00,
2013-04-18 17:02:00,54.0,44.0,29.80,South,178,3.0,8.0,70,0.00,,,-99.99,,2013-04-18 21:02:00,
2013-04-18 17:12:00,53.0,45.0,29.79,South,180,3.0,6.0,73,0.00,,,-99.99,,2013-04-18 21:12:00,
2013-04-18 17:22:00,53.0,45.0,29.79,South,180,3.0,6.0,73,0.00,,,-99.99,,2013-04-18 21:22:00,
2013-04-18 17:33:00,51.0,45.0,29.77,SE,144,3.0,6.0,80,0.00,,,-99.99,,2013-04-18 21:33:00,
2013-04-18 17:43:00,51.0,45.0,29.77,ESE,113,3.0,6.0,81,0.00,,,-99.99,,2013-04-18 21:43:00,
2013-04-18 17:53:00,51.0,45.0,29.77,ESE,113,3.0,6.0,81,0.00,,,-99.99,,2013-04-18 21:53:00,
2013-04-18 18:02:00,51.0,46.0,29.77,SSE,156,2.0,7.0,82,0.00,,,-99.99,,2013-04-18 22:02:00,
2013-04-18 18:13:00,51.0,45.0,29.77,ESE,116,3.0,6.0,81,0.00,,,-99.99,,2013-04-18 22:13:00,
2013-04-18 18:23:00,51.0,45.0,29.77,ESE,116,3.0,6.0,81,0.00,,,-99.99,,2013-04-18 22:23:00,
2013-04-18 18:32:00,52.0,46.0,29.77,SSE,158,3.0,5.0,80,0.00,,,-99.99,,2013-04-18 22:32:00,
2013-04-18 18:42:00,52.0,46.0,29.77,SSE,163,3.0,8.0,80,0.00,,,-99.99,,2013-04-18 22:42:00,
2013-04-18 18:52:00,52.0,46.0,29.77,SSE,163,3.0,8.0,80,0.00,,,-99.99,,2013-04-18 22:52:00,
2013-04-18 19:04:00,52.0,46.0,29.77,SSE,158,2.0,4.0,81,0.00,,,-99.99,,2013-04-18 23:04:00,
2013-04-18 19:12:00,52.0,47.0,29.77,SSE,161,2.0,4.0,82,0.00,,,-99.99,,2013-04-18 23:12:00,
2013-04-18 19:21:00,52.0,47.0,29.77,SSE,161,2.0,4.0,82,0.00,,,-99.99,,2013-04-18 23:21:00,
2013-04-18 19:32:00,51.0,46.0,29.77,SSE,167,2.0,6.0,84,0.00,,,-99.99,,2013-04-18 23:32:00,
2013-04-18 19:42:00,51.0,47.0,29.77,SSE,149,2.0,5.0,85,0.00,,,-99.99,,2013-04-18 23:42:00,
2013-04-18 19:52:00,51.0,47.0,29.77,SSE,149,2.0,5.0,85,0.00,,,-99.99,,2013-04-18 23:52:00,
2013-04-18 20:01:00,51.0,47.0,29.77,SSW,206,1.0,5.0,86,0.00,,,-99.99,,2013-04-19 00:01:00,
2013-04-18 20:12:00,51.0,47.0,29.74,SSE,157,2.0,7.0,87,0.00,,,-99.99,,2013-04-19 00:12:00,
2013-04-18 20:22:00,51.0,47.0,29.74,SSE,157,2.0,7.0,87,0.00,,,-99.99,,2013-04-19 00:22:00,
2013-04-18 20:32:00,51.0,47.0,29.74,SSE,166,1.0,5.0,87,0.00,,,-99.99,,2013-04-19 00:32:00,
2013-04-18 20:42:00,51.0,48.0,29.74,SSW,203,1.0,5.0,88,0.00,,,-99.99,,2013-04-19 00:42:00,
2013-04-18 20:52:00,51.0,48.0,29.74,SSW,203,1.0,5.0,88,0.00,,,-99.99,,2013-04-19 00:52:00,
2013-04-18 21:01:00,51.0,48.0,29.74,SE,124,2.0,6.0,89,0.00,,,-99.99,,2013-04-19 01:01:00,
2013-04-18 21:11:00,51.0,48.0,29.74,SSW,205,1.0,4.0,90,0.00,,,-99.99,,2013-04-19 01:11:00,
2013-04-18 21:21:00,51.0,48.0,29.74,SSW,205,1.0,4.0,90,0.00,,,-99.99,,2013-04-19 01:21:00,
2013-04-18 21:32:00,52.0,49.0,29.74,SSW,199,1.0,3.0,91,0.00,,,-99.99,,2013-04-19 01:32:00,
2013-04-18 21:42:00,52.0,50.0,29.74,SSW,206,2.0,4.0,92,0.00,,,-99.99,,2013-04-19 01:42:00,
2013-04-18 21:52:00,52.0,50.0,29.74,SSW,206,2.0,4.0,92,0.00,,,-99.99,,2013-04-19 01:52:00,
2013-04-18 22:02:00,52.0,50.0,29.74,South,176,3.0,6.0,94,0.00,,,-99.99,,2013-04-19 02:02:00,
2013-04-18 22:11:00,53.0,52.0,29.74,SSW,203,2.0,5.0,95,0.00,,,-99.99,,2013-04-19 02:11:00,
2013-04-18 22:21:00,53.0,52.0,29.74,SSW,203,2.0,5.0,95,0.00,,,-99.99,,2013-04-19 02:21:00,
2013-04-18 22:32:00,53.0,52.0,29.74,SSW,201,2.0,5.0,95,0.00,,,-99.99,,2013-04-19 02:32:00,
2013-04-18 22:42:00,53.0,52.0,29.72,SW,229,2.0,6.0,96,0.00,,,-99.99,,2013-04-19 02:42:00,
2013-04-18 22:52:00,53.0,52.0,29.72,SW,229,2.0,6.0,96,0.00,,,-99.99,,2013-04-19 02:52:00,
2013-04-18 23:01:00,53.0,52.0,29.71,SSW,205,2.0,7.0,97,0.00,,,-99.99,,2013-04-19 03:01:00,
2013-04-18 23:12:00,53.0,52.0,29.71,South,190,2.0,5.0,97,0.00,,,-99.99,,2013-04-19 03:12:00,
2013-04-18 23:21:00,53.0,52.0,29.71,South,190,2.0,5.0,97,0.00,,,-99.99,,2013-04-19 03:21:00,
2013-04-18 23:33:00,53.0,53.0,29.71,SSW,199,2.0,5.0,99,0.00,,,-99.99,,2013-04-19 03:33:00,
2013-04-18 23:43:00,53.0,53.0,29.71,SSW,213,2.0,4.0,99,0.00,,,-99.99,,2013-04-19 03:43:00,
2013-04-18 23:53:00,53.0,53.0,29.71,SSW,213,2.0,4.0,99,0.00,,,-99.99,,2013-04-19 03:53:00,